sensor_id;sensor_type;location;lat;lon;timestamp;P1;durP1;ratioP1;P2;durP2;ratioP2
26050;SDS011;13825;53.496;10.020;2023-06-10T00:02:35;5.63;;;3.03;;
26050;SDS011;13825;53.496;10.020;2023-06-10T02:20:23;5.20;;;2.60;;
26050;SDS011;13825;53.496;10.020;2023-06-10T02:23:08;7.90;;;2.90;;
26050;SDS011;13825;53.496;10.020;2023-06-10T02:25:50;4.70;;;2.67;;
26050;SDS011;13825;53.496;10.020;2023-06-10T02:28:20;2.97;;;2.23;;
26050;SDS011;13825;53.496;10.020;2023-06-10T02:31:05;5.53;;;2.57;;
26050;SDS011;13825;53.496;10.020;2023-06-10T02:33:58;5.77;;;2.27;;
26050;SDS011;13825;53.496;10.020;2023-06-10T05:36:05;5.00;;;1.77;;
26050;SDS011;13825;53.496;10.020;2023-06-10T05:59:46;4.50;;;1.90;;
26050;SDS011;13825;53.496;10.020;2023-06-10T06:02:24;4.17;;;1.90;;
26050;SDS011;13825;53.496;10.020;2023-06-10T06:04:54;6.70;;;2.03;;
26050;SDS011;13825;53.496;10.020;2023-06-10T06:08:01;2.83;;;1.60;;
26050;SDS011;13825;53.496;10.020;2023-06-10T06:10:31;4.90;;;1.70;;
26050;SDS011;13825;53.496;10.020;2023-06-10T06:13:23;3.00;;;1.60;;
26050;SDS011;13825;53.496;10.020;2023-06-10T06:22:10;4.07;;;1.90;;
26050;SDS011;13825;53.496;10.020;2023-06-10T06:24:48;5.13;;;2.23;;
26050;SDS011;13825;53.496;10.020;2023-06-10T06:27:30;3.47;;;1.63;;
26050;SDS011;13825;53.496;10.020;2023-06-10T06:30:09;2.90;;;1.87;;
26050;SDS011;13825;53.496;10.020;2023-06-10T06:32:51;4.77;;;2.00;;
26050;SDS011;13825;53.496;10.020;2023-06-10T06:35:23;6.07;;;1.80;;
26050;SDS011;13825;53.496;10.020;2023-06-10T06:37:52;4.60;;;1.80;;
26050;SDS011;13825;53.496;10.020;2023-06-10T06:43:31;4.57;;;1.83;;
26050;SDS011;13825;53.496;10.020;2023-06-10T06:46:13;3.73;;;1.67;;
26050;SDS011;13825;53.496;10.020;2023-06-10T06:49:04;4.40;;;1.80;;
26050;SDS011;13825;53.496;10.020;2023-06-10T06:54:54;3.63;;;1.83;;
26050;SDS011;13825;53.496;10.020;2023-06-10T06:57:36;4.60;;;1.80;;
26050;SDS011;13825;53.496;10.020;2023-06-10T07:00:04;8.67;;;2.67;;
26050;SDS011;13825;53.496;10.020;2023-06-10T07:02:33;3.97;;;1.73;;
26050;SDS011;13825;53.496;10.020;2023-06-10T07:05:11;3.97;;;1.77;;
26050;SDS011;13825;53.496;10.020;2023-06-10T07:08:08;3.30;;;2.10;;
26050;SDS011;13825;53.496;10.020;2023-06-10T07:10:38;4.73;;;1.60;;
26050;SDS011;13825;53.496;10.020;2023-06-10T07:13:32;4.17;;;1.70;;
26050;SDS011;13825;53.496;10.020;2023-06-10T07:16:12;5.07;;;2.23;;
26050;SDS011;13825;53.496;10.020;2023-06-10T07:18:41;6.50;;;2.00;;
26050;SDS011;13825;53.496;10.020;2023-06-10T07:21:13;5.27;;;2.13;;
26050;SDS011;13825;53.496;10.020;2023-06-10T07:33:21;4.10;;;2.00;;
26050;SDS011;13825;53.496;10.020;2023-06-10T07:35:57;3.30;;;1.97;;
26050;SDS011;13825;53.496;10.020;2023-06-10T07:38:34;3.73;;;1.80;;
26050;SDS011;13825;53.496;10.020;2023-06-10T07:41:16;4.17;;;1.73;;
26050;SDS011;13825;53.496;10.020;2023-06-10T07:43:52;4.67;;;2.10;;
26050;SDS011;13825;53.496;10.020;2023-06-10T07:46:39;5.17;;;1.87;;
26050;SDS011;13825;53.496;10.020;2023-06-10T07:49:09;4.53;;;2.00;;
26050;SDS011;13825;53.496;10.020;2023-06-10T07:51:39;3.03;;;1.90;;
26050;SDS011;13825;53.496;10.020;2023-06-10T07:57:17;5.77;;;2.10;;
26050;SDS011;13825;53.496;10.020;2023-06-10T07:59:45;6.57;;;2.10;;
26050;SDS011;13825;53.496;10.020;2023-06-10T08:14:29;3.80;;;2.33;;
26050;SDS011;13825;53.496;10.020;2023-06-10T08:27:27;3.50;;;2.40;;
26050;SDS011;13825;53.496;10.020;2023-06-10T08:39:56;6.63;;;2.77;;
26050;SDS011;13825;53.496;10.020;2023-06-10T08:42:26;4.50;;;2.20;;
26050;SDS011;13825;53.496;10.020;2023-06-10T08:45:04;5.00;;;2.53;;
26050;SDS011;13825;53.496;10.020;2023-06-10T08:50:42;6.47;;;2.17;;
26050;SDS011;13825;53.496;10.020;2023-06-10T08:53:27;5.50;;;2.40;;
26050;SDS011;13825;53.496;10.020;2023-06-10T08:56:03;5.40;;;2.53;;
26050;SDS011;13825;53.496;10.020;2023-06-10T09:01:31;4.77;;;2.27;;
26050;SDS011;13825;53.496;10.020;2023-06-10T09:04:16;3.90;;;2.30;;
26050;SDS011;13825;53.496;10.020;2023-06-10T09:06:47;4.03;;;2.57;;
26050;SDS011;13825;53.496;10.020;2023-06-10T09:12:44;4.93;;;2.47;;
26050;SDS011;13825;53.496;10.020;2023-06-10T09:15:48;4.87;;;2.47;;
26050;SDS011;13825;53.496;10.020;2023-06-10T09:18:19;5.40;;;2.50;;
26050;SDS011;13825;53.496;10.020;2023-06-10T09:26:11;3.97;;;2.03;;
26050;SDS011;13825;53.496;10.020;2023-06-10T09:28:50;4.10;;;2.50;;
26050;SDS011;13825;53.496;10.020;2023-06-10T09:31:16;4.97;;;2.90;;
26050;SDS011;13825;53.496;10.020;2023-06-10T09:33:48;7.77;;;2.90;;
26050;SDS011;13825;53.496;10.020;2023-06-10T09:36:21;4.73;;;2.40;;
26050;SDS011;13825;53.496;10.020;2023-06-10T09:38:49;4.67;;;2.80;;
26050;SDS011;13825;53.496;10.020;2023-06-10T09:41:17;3.97;;;2.53;;
26050;SDS011;13825;53.496;10.020;2023-06-10T09:43:44;4.13;;;2.57;;
26050;SDS011;13825;53.496;10.020;2023-06-10T09:49:42;2.60;;;2.30;;
26050;SDS011;13825;53.496;10.020;2023-06-10T10:38:56;5.47;;;2.90;;
26050;SDS011;13825;53.496;10.020;2023-06-10T10:41:30;5.93;;;3.13;;
26050;SDS011;13825;53.496;10.020;2023-06-10T10:44:08;6.83;;;3.40;;
26050;SDS011;13825;53.496;10.020;2023-06-10T10:46:48;5.43;;;3.07;;
26050;SDS011;13825;53.496;10.020;2023-06-10T10:49:17;7.20;;;3.30;;
26050;SDS011;13825;53.496;10.020;2023-06-10T10:54:54;5.13;;;3.20;;
26050;SDS011;13825;53.496;10.020;2023-06-10T10:57:28;4.53;;;3.03;;
26050;SDS011;13825;53.496;10.020;2023-06-10T11:00:12;5.87;;;3.17;;
26050;SDS011;13825;53.496;10.020;2023-06-10T11:03:00;5.43;;;3.50;;
26050;SDS011;13825;53.496;10.020;2023-06-10T11:05:42;9.73;;;3.27;;
26050;SDS011;13825;53.496;10.020;2023-06-10T11:08:13;5.10;;;2.77;;
26050;SDS011;13825;53.496;10.020;2023-06-10T11:10:51;5.83;;;2.90;;
26050;SDS011;13825;53.496;10.020;2023-06-10T12:04:42;4.00;;;3.60;;
26050;SDS011;13825;53.496;10.020;2023-06-10T12:07:19;6.23;;;3.90;;
26050;SDS011;13825;53.496;10.020;2023-06-10T12:09:58;7.93;;;3.83;;
26050;SDS011;13825;53.496;10.020;2023-06-10T15:17:35;4.77;;;3.27;;
26050;SDS011;13825;53.496;10.020;2023-06-10T15:20:03;4.73;;;2.60;;
26050;SDS011;13825;53.496;10.020;2023-06-10T15:22:47;5.47;;;2.90;;
26050;SDS011;13825;53.496;10.020;2023-06-10T15:25:37;4.93;;;2.63;;
26050;SDS011;13825;53.496;10.020;2023-06-10T15:28:26;6.23;;;2.93;;
26050;SDS011;13825;53.496;10.020;2023-06-10T15:34:43;8.23;;;2.90;;
26050;SDS011;13825;53.496;10.020;2023-06-10T15:37:15;7.23;;;3.20;;
26050;SDS011;13825;53.496;10.020;2023-06-10T15:39:58;5.93;;;3.00;;
26050;SDS011;13825;53.496;10.020;2023-06-10T15:42:34;3.53;;;2.80;;
26050;SDS011;13825;53.496;10.020;2023-06-10T15:45:11;4.47;;;2.90;;
26050;SDS011;13825;53.496;10.020;2023-06-10T15:47:43;5.03;;;2.95;;
26050;SDS011;13825;53.496;10.020;2023-06-10T15:58:28;5.95;;;2.92;;
26050;SDS011;13825;53.496;10.020;2023-06-10T16:00:52;4.68;;;3.33;;
26050;SDS011;13825;53.496;10.020;2023-06-10T16:06:26;5.95;;;2.53;;
26050;SDS011;13825;53.496;10.020;2023-06-10T16:27:13;5.18;;;3.13;;
26050;SDS011;13825;53.496;10.020;2023-06-10T16:29:40;5.82;;;2.95;;
26050;SDS011;13825;53.496;10.020;2023-06-10T16:32:08;5.25;;;2.83;;
26050;SDS011;13825;53.496;10.020;2023-06-10T16:34:36;4.15;;;2.83;;
26050;SDS011;13825;53.496;10.020;2023-06-10T16:37:03;3.53;;;2.50;;
26050;SDS011;13825;53.496;10.020;2023-06-10T16:39:31;4.30;;;2.67;;
26050;SDS011;13825;53.496;10.020;2023-06-10T16:42:15;7.97;;;2.92;;
26050;SDS011;13825;53.496;10.020;2023-06-10T16:45:04;5.95;;;2.65;;
26050;SDS011;13825;53.496;10.020;2023-06-10T16:47:53;6.78;;;3.00;;
26050;SDS011;13825;53.496;10.020;2023-06-10T16:50:46;4.75;;;2.88;;
26050;SDS011;13825;53.496;10.020;2023-06-10T16:53:19;3.78;;;2.88;;
26050;SDS011;13825;53.496;10.020;2023-06-10T16:55:46;3.38;;;2.47;;
26050;SDS011;13825;53.496;10.020;2023-06-10T16:58:19;4.10;;;2.70;;
26050;SDS011;13825;53.496;10.020;2023-06-10T17:00:50;3.53;;;2.75;;
26050;SDS011;13825;53.496;10.020;2023-06-10T17:06:10;7.90;;;2.80;;
26050;SDS011;13825;53.496;10.020;2023-06-10T17:08:45;7.10;;;3.23;;
26050;SDS011;13825;53.496;10.020;2023-06-10T17:11:15;5.87;;;2.63;;
26050;SDS011;13825;53.496;10.020;2023-06-10T17:13:50;4.53;;;2.57;;
26050;SDS011;13825;53.496;10.020;2023-06-10T17:16:18;10.57;;;3.13;;
26050;SDS011;13825;53.496;10.020;2023-06-10T17:18:46;5.43;;;3.00;;
26050;SDS011;13825;53.496;10.020;2023-06-10T17:21:15;5.87;;;3.00;;
26050;SDS011;13825;53.496;10.020;2023-06-10T17:23:42;5.70;;;2.30;;
26050;SDS011;13825;53.496;10.020;2023-06-10T17:26:11;3.50;;;2.50;;
26050;SDS011;13825;53.496;10.020;2023-06-10T17:28:39;5.47;;;2.70;;
26050;SDS011;13825;53.496;10.020;2023-06-10T17:31:11;4.87;;;2.73;;
26050;SDS011;13825;53.496;10.020;2023-06-10T17:33:50;6.87;;;2.80;;
26050;SDS011;13825;53.496;10.020;2023-06-10T17:36:22;7.20;;;3.17;;
26050;SDS011;13825;53.496;10.020;2023-06-10T17:38:56;6.67;;;3.00;;
26050;SDS011;13825;53.496;10.020;2023-06-10T17:41:25;6.07;;;2.73;;
26050;SDS011;13825;53.496;10.020;2023-06-10T17:43:55;7.63;;;2.67;;
26050;SDS011;13825;53.496;10.020;2023-06-10T17:49:37;4.30;;;2.70;;
26050;SDS011;13825;53.496;10.020;2023-06-10T17:52:06;6.60;;;2.50;;
26050;SDS011;13825;53.496;10.020;2023-06-10T17:54:34;4.80;;;2.80;;
26050;SDS011;13825;53.496;10.020;2023-06-10T17:57:21;5.33;;;3.00;;
26050;SDS011;13825;53.496;10.020;2023-06-10T17:59:55;5.77;;;2.60;;
26050;SDS011;13825;53.496;10.020;2023-06-10T18:02:26;5.43;;;2.90;;
26050;SDS011;13825;53.496;10.020;2023-06-10T18:04:55;5.40;;;3.03;;
26050;SDS011;13825;53.496;10.020;2023-06-10T18:07:25;6.63;;;3.30;;
26050;SDS011;13825;53.496;10.020;2023-06-10T18:09:52;4.87;;;2.90;;
26050;SDS011;13825;53.496;10.020;2023-06-10T18:12:20;5.93;;;2.53;;
26050;SDS011;13825;53.496;10.020;2023-06-10T18:14:47;5.60;;;2.83;;
26050;SDS011;13825;53.496;10.020;2023-06-10T18:17:15;7.00;;;3.30;;
26050;SDS011;13825;53.496;10.020;2023-06-10T18:25:30;4.97;;;3.00;;
26050;SDS011;13825;53.496;10.020;2023-06-10T18:28:05;4.43;;;2.50;;
26050;SDS011;13825;53.496;10.020;2023-06-10T18:30:32;5.63;;;2.40;;
26050;SDS011;13825;53.496;10.020;2023-06-10T18:32:59;5.53;;;2.67;;
26050;SDS011;13825;53.496;10.020;2023-06-10T18:35:28;5.37;;;2.83;;
26050;SDS011;13825;53.496;10.020;2023-06-10T18:37:56;4.73;;;3.47;;
26050;SDS011;13825;53.496;10.020;2023-06-10T18:40:28;5.53;;;3.00;;
26050;SDS011;13825;53.496;10.020;2023-06-10T18:43:00;6.73;;;3.10;;
26050;SDS011;13825;53.496;10.020;2023-06-10T18:45:33;6.87;;;3.30;;
26050;SDS011;13825;53.496;10.020;2023-06-10T18:48:09;7.70;;;3.03;;
26050;SDS011;13825;53.496;10.020;2023-06-10T18:50:48;5.60;;;2.70;;
26050;SDS011;13825;53.496;10.020;2023-06-10T18:53:15;5.03;;;2.87;;
26050;SDS011;13825;53.496;10.020;2023-06-10T18:55:50;3.73;;;2.50;;
26050;SDS011;13825;53.496;10.020;2023-06-10T18:58:17;3.83;;;2.60;;
26050;SDS011;13825;53.496;10.020;2023-06-10T19:00:44;5.53;;;3.17;;
26050;SDS011;13825;53.496;10.020;2023-06-10T19:03:11;7.43;;;3.43;;
26050;SDS011;13825;53.496;10.020;2023-06-10T19:05:38;4.07;;;2.40;;
26050;SDS011;13825;53.496;10.020;2023-06-10T19:08:06;6.77;;;3.23;;
26050;SDS011;13825;53.496;10.020;2023-06-10T19:10:33;6.43;;;3.00;;
26050;SDS011;13825;53.496;10.020;2023-06-10T19:13:03;7.97;;;4.10;;
26050;SDS011;13825;53.496;10.020;2023-06-10T19:15:30;7.00;;;2.63;;
26050;SDS011;13825;53.496;10.020;2023-06-10T19:17:57;6.90;;;3.47;;
26050;SDS011;13825;53.496;10.020;2023-06-10T19:20:30;7.47;;;3.13;;
26050;SDS011;13825;53.496;10.020;2023-06-10T19:22:57;6.43;;;2.77;;
26050;SDS011;13825;53.496;10.020;2023-06-10T19:25:25;4.20;;;2.80;;
26050;SDS011;13825;53.496;10.020;2023-06-10T19:27:52;5.93;;;3.00;;
26050;SDS011;13825;53.496;10.020;2023-06-10T19:30:22;4.50;;;3.00;;
26050;SDS011;13825;53.496;10.020;2023-06-10T19:32:52;5.23;;;3.07;;
26050;SDS011;13825;53.496;10.020;2023-06-10T19:35:19;5.37;;;3.50;;
26050;SDS011;13825;53.496;10.020;2023-06-10T19:37:49;4.90;;;2.90;;
26050;SDS011;13825;53.496;10.020;2023-06-10T19:40:17;7.40;;;3.43;;
26050;SDS011;13825;53.496;10.020;2023-06-10T19:42:47;3.57;;;2.87;;
26050;SDS011;13825;53.496;10.020;2023-06-10T22:13:20;4.50;;;1.93;;
26050;SDS011;13825;53.496;10.020;2023-06-10T22:15:49;3.73;;;1.97;;
26050;SDS011;13825;53.496;10.020;2023-06-10T22:18:16;6.37;;;2.40;;
26050;SDS011;13825;53.496;10.020;2023-06-10T22:20:44;4.77;;;2.20;;
26050;SDS011;13825;53.496;10.020;2023-06-10T22:23:17;5.13;;;2.17;;
26050;SDS011;13825;53.496;10.020;2023-06-10T22:25:48;3.90;;;2.03;;
26050;SDS011;13825;53.496;10.020;2023-06-10T22:28:28;6.43;;;2.27;;
26050;SDS011;13825;53.496;10.020;2023-06-10T22:30:55;3.97;;;1.90;;
26050;SDS011;13825;53.496;10.020;2023-06-10T22:33:27;9.80;;;1.90;;
26050;SDS011;13825;53.496;10.020;2023-06-10T22:36:03;4.03;;;2.00;;
26050;SDS011;13825;53.496;10.020;2023-06-10T22:38:30;2.60;;;1.90;;
26050;SDS011;13825;53.496;10.020;2023-06-10T22:40:57;4.83;;;2.20;;
26050;SDS011;13825;53.496;10.020;2023-06-10T22:43:31;5.63;;;1.80;;
26050;SDS011;13825;53.496;10.020;2023-06-10T22:45:58;3.23;;;1.70;;
26050;SDS011;13825;53.496;10.020;2023-06-10T22:48:28;4.63;;;2.20;;
26050;SDS011;13825;53.496;10.020;2023-06-10T22:51:02;2.70;;;1.77;;
26050;SDS011;13825;53.496;10.020;2023-06-10T22:53:30;5.10;;;1.97;;
26050;SDS011;13825;53.496;10.020;2023-06-10T22:56:00;3.00;;;1.70;;
26050;SDS011;13825;53.496;10.020;2023-06-10T22:58:32;5.83;;;2.10;;
26050;SDS011;13825;53.496;10.020;2023-06-10T23:01:03;2.63;;;1.70;;
26050;SDS011;13825;53.496;10.020;2023-06-10T23:03:45;4.90;;;1.87;;
26050;SDS011;13825;53.496;10.020;2023-06-10T23:06:14;2.77;;;1.87;;
26050;SDS011;13825;53.496;10.020;2023-06-10T23:08:41;2.97;;;2.00;;
26050;SDS011;13825;53.496;10.020;2023-06-10T23:11:10;3.90;;;1.80;;
26050;SDS011;13825;53.496;10.020;2023-06-10T23:13:48;4.13;;;2.00;;
26050;SDS011;13825;53.496;10.020;2023-06-10T23:16:21;3.53;;;1.60;;
26050;SDS011;13825;53.496;10.020;2023-06-10T23:18:51;2.63;;;1.50;;
26050;SDS011;13825;53.496;10.020;2023-06-10T23:21:21;6.30;;;1.90;;
26050;SDS011;13825;53.496;10.020;2023-06-10T23:23:58;3.17;;;1.80;;
26050;SDS011;13825;53.496;10.020;2023-06-10T23:26:28;2.97;;;1.70;;
26050;SDS011;13825;53.496;10.020;2023-06-10T23:29:01;1.70;;;1.40;;
26050;SDS011;13825;53.496;10.020;2023-06-10T23:31:42;4.60;;;2.17;;
26050;SDS011;13825;53.496;10.020;2023-06-10T23:34:22;7.13;;;1.97;;
26050;SDS011;13825;53.496;10.020;2023-06-10T23:36:56;4.00;;;1.73;;
26050;SDS011;13825;53.496;10.020;2023-06-10T23:39:26;2.87;;;1.60;;
26050;SDS011;13825;53.496;10.020;2023-06-10T23:41:58;1.73;;;1.50;;
26050;SDS011;13825;53.496;10.020;2023-06-10T23:44:29;3.53;;;1.63;;
26050;SDS011;13825;53.496;10.020;2023-06-10T23:47:00;2.97;;;1.67;;
26050;SDS011;13825;53.496;10.020;2023-06-10T23:49:32;2.00;;;1.60;;
26050;SDS011;13825;53.496;10.020;2023-06-10T23:52:16;2.20;;;1.50;;
26050;SDS011;13825;53.496;10.020;2023-06-10T23:54:56;2.23;;;1.40;;
26050;SDS011;13825;53.496;10.020;2023-06-10T23:57:35;1.50;;;1.40;;
